createdAt,value
2017-04-11T00:00:12.069Z,68.36
2017-04-11T00:00:52.974Z,68.07
2017-04-11T00:01:33.855Z,68.27
2017-04-11T00:02:14.725Z,67.98
2017-04-11T00:02:55.604Z,68.07
2017-04-11T00:03:36.480Z,67.69
2017-04-11T00:04:17.365Z,67.5
2017-04-11T00:04:58.243Z,68.27
2017-04-11T00:05:39.122Z,67.98
2017-04-11T00:06:20.006Z,68.46
2017-04-11T00:07:00.886Z,68.07
2017-04-11T00:07:41.767Z,68.07
2017-04-11T00:08:22.652Z,68.36
2017-04-11T00:09:03.531Z,68.17
2017-04-11T00:09:44.415Z,68.27
2017-04-11T00:10:25.293Z,67.98
2017-04-11T00:11:06.179Z,67.98
2017-04-11T00:11:47.056Z,68.17
2017-04-11T00:12:27.928Z,68.07
2017-04-11T00:13:08.798Z,68.36
2017-04-11T00:13:49.678Z,67.5
2017-04-11T00:14:30.558Z,67.79
2017-04-11T00:15:11.440Z,68.07
2017-04-11T00:15:52.316Z,67.98
2017-04-11T00:16:33.191Z,67.98
2017-04-11T00:17:14.074Z,68.46
2017-04-11T00:17:54.954Z,68.46
2017-04-11T00:18:35.831Z,68.27
2017-04-11T00:19:16.705Z,68.55
2017-04-11T00:19:57.583Z,68.84
2017-04-11T00:20:38.467Z,68.74
2017-04-11T00:21:19.344Z,68.36
2017-04-11T00:22:00.226Z,68.36
2017-04-11T00:22:41.108Z,68.46
2017-04-11T00:23:21.990Z,68.46
2017-04-11T00:24:02.866Z,68.74
2017-04-11T00:24:43.750Z,69.21
2017-04-11T00:25:24.667Z,69.12
2017-04-11T00:26:05.546Z,68.65
2017-04-11T00:26:46.425Z,68.65
2017-04-11T00:27:27.300Z,69.02
2017-04-11T00:28:08.175Z,69.12
2017-04-11T00:28:49.057Z,69.12
2017-04-11T00:29:29.940Z,68.55
2017-04-11T00:30:10.824Z,68.46
2017-04-11T00:30:51.696Z,68.46
2017-04-11T00:31:32.571Z,69.41
2017-04-11T00:32:13.439Z,68.93
2017-04-11T00:32:54.362Z,68.93
2017-04-11T00:33:35.240Z,69.6
2017-04-11T00:34:16.123Z,69.6
2017-04-11T00:34:57.014Z,69.88
2017-04-11T00:35:37.895Z,70.17
2017-04-11T00:36:18.773Z,70.07
2017-04-11T00:36:59.660Z,70.07
2017-04-11T00:37:40.536Z,70.07
2017-04-11T00:38:21.420Z,70.54
2017-04-11T00:39:02.292Z,70.54
2017-04-11T00:39:43.170Z,70.74
2017-04-11T00:40:24.061Z,70.74
2017-04-11T00:41:04.955Z,70.74
2017-04-11T00:41:45.840Z,70.93
2017-04-11T00:42:26.727Z,71.08
2017-04-11T00:43:07.604Z,71.27
2017-04-11T00:43:48.488Z,71.12
2017-04-11T00:44:29.365Z,71.22
2017-04-11T00:45:10.245Z,71.12
2017-04-11T00:45:51.120Z,70.54
2017-04-11T00:46:32.004Z,70.54
2017-04-11T00:47:12.878Z,70.54
2017-04-11T00:47:53.748Z,71.12
2017-04-11T00:48:34.626Z,70.83
2017-04-11T00:49:15.507Z,71.02
2017-04-11T00:49:56.389Z,71.27
2017-04-11T00:50:37.266Z,71.37
2017-04-11T00:51:18.135Z,71.18
2017-04-11T00:51:59.014Z,71.66
2017-04-11T00:52:39.891Z,71.84
2017-04-11T00:53:20.781Z,71.66
2017-04-11T00:54:01.658Z,71.84
2017-04-11T00:54:42.540Z,71.84
2017-04-11T00:55:23.417Z,71.84
2017-04-11T00:56:04.304Z,71.94
2017-04-11T00:56:45.190Z,71.88
2017-04-11T00:57:26.073Z,71.56
2017-04-11T00:58:06.947Z,72.03
2017-04-11T00:58:47.824Z,72.03
2017-04-11T00:59:28.705Z,72.03
2017-04-11T01:00:09.587Z,71.84
2017-04-11T01:00:50.467Z,71.59
2017-04-11T01:01:31.348Z,71.78
2017-04-11T01:02:12.219Z,71.94
2017-04-11T01:02:53.101Z,72.45
2017-04-11T01:03:33.981Z,72.13
2017-04-11T01:04:14.843Z,72.07
2017-04-11T01:04:55.747Z,71.88
2017-04-11T01:05:36.637Z,72.22
2017-04-11T01:06:17.518Z,72.45
2017-04-11T01:06:58.397Z,71.78
2017-04-11T01:07:39.270Z,71.78
2017-04-11T01:08:20.155Z,71.78
2017-04-11T01:09:01.041Z,71.84
2017-04-11T01:09:41.910Z,72.6
2017-04-11T01:10:22.795Z,72.51
2017-04-11T01:11:03.675Z,72.79
2017-04-11T01:12:42.050Z,73.46
2017-04-11T01:13:22.975Z,73.36
2017-04-11T01:14:03.811Z,73.27
2017-04-11T01:14:44.694Z,73.46
2017-04-11T01:15:25.612Z,73.55
2017-04-11T01:16:06.486Z,73.36
2017-04-11T01:16:49.103Z,73.65
2017-04-11T01:17:29.985Z,73.08
2017-04-11T01:18:12.396Z,72.79
2017-04-11T01:18:53.277Z,72.79
2017-04-11T01:19:34.176Z,73.18
2017-04-11T01:20:15.053Z,73.74
2017-04-11T01:20:55.925Z,74.41
2017-04-11T01:21:36.795Z,73.93
2017-04-11T01:22:17.670Z,74.31
2017-04-11T01:22:58.544Z,74.03
2017-04-11T01:23:39.420Z,74.41
2017-04-11T01:24:20.297Z,74.31
2017-04-11T01:25:01.173Z,73.93
2017-04-11T01:25:42.051Z,73.93
2017-04-11T01:26:22.927Z,74.41
2017-04-11T01:27:03.806Z,74.31
2017-04-11T01:27:44.678Z,74.12
2017-04-11T01:28:25.563Z,74.51
2017-04-11T01:29:06.450Z,74.69
2017-04-11T01:29:47.326Z,74.22
2017-04-11T01:30:30.096Z,74.03
2017-04-11T01:31:10.975Z,74.12
2017-04-11T01:31:51.853Z,74.22
2017-04-11T01:32:32.734Z,74.51
2017-04-11T01:33:13.612Z,74.69
2017-04-11T01:33:54.495Z,75.26
2017-04-11T01:34:35.373Z,75.07
2017-04-11T01:35:16.248Z,74.98
2017-04-11T01:35:57.128Z,74.88
2017-04-11T01:36:38.006Z,74.88
2017-04-11T01:37:18.888Z,74.88
2017-04-11T01:37:59.772Z,74.79
2017-04-11T01:38:40.653Z,74.79
2017-04-11T01:39:21.527Z,74.98
2017-04-11T01:40:02.400Z,74.98
2017-04-11T01:40:43.280Z,74.98
2017-04-11T01:41:24.161Z,74.88
2017-04-11T01:42:06.609Z,75.07
2017-04-11T01:42:47.490Z,75.26
2017-04-11T01:43:28.367Z,74.75
2017-04-11T01:44:09.248Z,75.17
2017-04-11T01:44:50.121Z,74.88
2017-04-11T01:45:30.999Z,74.79
2017-04-11T01:46:11.872Z,75.36
2017-04-11T01:46:52.743Z,75.26
2017-04-11T01:47:33.635Z,75.45
2017-04-11T01:48:16.390Z,75.93
2017-04-11T01:48:57.264Z,75.26
2017-04-11T01:49:38.140Z,75.23
2017-04-11T01:50:19.016Z,75.26
2017-04-11T01:50:59.894Z,75.45
2017-04-11T01:51:40.771Z,75.89
2017-04-11T01:52:21.644Z,75.79
2017-04-11T01:53:02.521Z,75.7
2017-04-11T01:53:43.404Z,75.89
2017-04-11T01:54:24.288Z,76.08
2017-04-11T01:55:05.167Z,75.74
2017-04-11T01:55:46.048Z,75.64
2017-04-11T01:56:26.920Z,76.03
2017-04-11T01:57:07.798Z,76.27
2017-04-11T01:57:48.677Z,76.37
2017-04-11T01:58:29.554Z,76.5
2017-04-11T01:59:10.431Z,76.59
2017-04-11T01:59:51.309Z,76.59
2017-04-11T02:00:34.106Z,76.59
2017-04-11T02:01:14.986Z,76.97
2017-04-11T02:01:55.869Z,77.17
2017-04-11T02:02:36.748Z,77.12
2017-04-11T02:03:19.607Z,77.17
2017-04-11T02:04:00.489Z,76.97
2017-04-11T02:04:41.368Z,77.55
2017-04-11T02:05:22.246Z,77.89
2017-04-11T02:06:03.133Z,78.27
2017-04-11T02:06:45.737Z,78.93
2017-04-11T02:07:28.253Z,78.64
2017-04-11T02:08:09.131Z,78.83
2017-04-11T02:08:50.007Z,78.74
2017-04-11T02:09:30.935Z,79.22
2017-04-11T02:10:11.807Z,79.22
2017-04-11T02:10:54.387Z,79.22
2017-04-11T02:11:37.238Z,78.64
2017-04-11T02:12:18.118Z,79.31
2017-04-11T02:13:00.742Z,79.35
2017-04-11T02:13:44.417Z,78.69
2017-04-11T02:14:25.297Z,78.21
2017-04-11T02:15:07.735Z,78.5
2017-04-11T02:15:48.616Z,78.55
2017-04-11T02:16:29.493Z,78.97
2017-04-11T02:17:10.366Z,79.31
2017-04-11T02:17:51.244Z,78.97
2017-04-11T02:18:32.122Z,79.41
2017-04-11T02:19:12.994Z,78.93
2017-04-11T02:19:53.868Z,79.22
2017-04-11T02:20:34.743Z,79.41
2017-04-11T02:21:15.617Z,79.31
2017-04-11T02:21:56.499Z,79.22
2017-04-11T02:22:38.888Z,79.5
2017-04-11T02:23:19.768Z,79.03
2017-04-11T02:24:00.646Z,78.93
2017-04-11T02:24:41.516Z,79.5
2017-04-11T02:25:22.401Z,78.93
2017-04-11T02:26:05.102Z,79.12
2017-04-11T02:26:45.975Z,79.22
2017-04-11T02:27:26.848Z,79.41
2017-04-11T02:28:07.725Z,79.69
2017-04-11T02:28:48.608Z,79.41
2017-04-11T02:29:29.494Z,79.12
2017-04-11T02:30:10.397Z,78.93
2017-04-11T02:30:51.237Z,78.93
2017-04-11T02:31:32.107Z,79.79
2017-04-11T02:32:12.984Z,79.22
2017-04-11T02:32:53.871Z,79.41
2017-04-11T02:33:34.750Z,79.22
2017-04-11T02:34:15.629Z,78.93
2017-04-11T02:34:56.516Z,79.6
2017-04-11T02:35:37.394Z,79.5
2017-04-11T02:36:18.265Z,79.5
2017-04-11T02:36:59.145Z,78.93
2017-04-11T02:37:40.021Z,79.12
2017-04-11T02:38:20.898Z,79.03
2017-04-11T02:39:01.776Z,79.5
2017-04-11T02:39:42.650Z,79.5
2017-04-11T02:40:23.524Z,79.79
2017-04-11T02:41:04.410Z,79.97
2017-04-11T02:41:45.293Z,80.07
2017-04-11T02:42:26.173Z,80.07
2017-04-11T02:43:07.054Z,80.07
2017-04-11T02:43:49.741Z,80.16
2017-04-11T02:44:30.617Z,80.07
2017-04-11T02:45:11.494Z,80.16
2017-04-11T02:45:55.887Z,80.45
2017-04-11T02:46:36.780Z,80.26
2017-04-11T02:47:17.652Z,81.12
2017-04-11T02:48:00.117Z,80.64
2017-04-11T02:48:40.996Z,80.74
2017-04-11T02:49:21.872Z,80.64
2017-04-11T02:50:02.755Z,80.74
2017-04-11T02:50:43.628Z,80.93
2017-04-11T02:51:24.501Z,81.49
2017-04-11T02:52:05.377Z,81.12
2017-04-11T02:52:46.253Z,80.93
2017-04-11T02:53:27.131Z,81.3
2017-04-11T02:54:08.012Z,82.07
2017-04-11T02:54:48.887Z,81.02
2017-04-11T02:55:29.801Z,81.12
2017-04-11T02:56:10.651Z,80.83
2017-04-11T02:56:51.526Z,81.12
2017-04-11T02:57:32.397Z,81.59
2017-04-11T02:58:13.283Z,81.12
2017-04-11T02:58:54.167Z,80.93
2017-04-11T02:59:35.044Z,80.93
2017-04-11T03:00:15.916Z,81.12
2017-04-11T03:00:58.614Z,81.49
2017-04-11T03:01:39.493Z,81.59
2017-04-11T03:02:20.399Z,80.83
2017-04-11T03:03:01.280Z,81.68
2017-04-11T03:03:42.161Z,81.68
2017-04-11T03:04:23.028Z,81.49
2017-04-11T03:05:05.791Z,81.12
2017-04-11T03:05:47.286Z,81.21
2017-04-11T03:06:28.161Z,81.12
2017-04-11T03:07:09.897Z,81.3
2017-04-11T03:07:50.791Z,81.12
2017-04-11T03:08:33.405Z,81.68
2017-04-11T03:09:14.283Z,80.83
2017-04-11T03:09:55.157Z,81.3
2017-04-11T03:10:36.041Z,81.3
2017-04-11T03:11:16.915Z,81.02
2017-04-11T03:11:57.796Z,81.87
2017-04-11T03:12:38.679Z,81.68
2017-04-11T03:13:19.559Z,81.87
2017-04-11T03:14:00.434Z,81.97
2017-04-11T03:14:41.314Z,81.68
2017-04-11T03:15:22.201Z,81.97
2017-04-11T03:16:03.080Z,82.35
2017-04-11T03:16:45.744Z,82.45
2017-04-11T03:17:26.616Z,82.26
2017-04-11T03:18:07.496Z,82.35
2017-04-11T03:18:48.380Z,82.35
2017-04-11T03:19:29.250Z,82.35
2017-04-11T03:20:10.125Z,82.16
2017-04-11T03:20:51.001Z,81.87
2017-04-11T03:21:31.878Z,81.59
2017-04-11T03:22:12.761Z,81.78
2017-04-11T03:22:53.639Z,81.59
2017-04-11T03:23:34.521Z,81.68
2017-04-11T03:24:15.392Z,81.4
2017-04-11T03:24:56.289Z,80.83
2017-04-11T03:25:37.170Z,80.93
2017-04-11T03:26:18.042Z,80.93
2017-04-11T03:26:58.914Z,81.3
2017-04-11T03:27:39.800Z,81.02
2017-04-11T03:28:20.677Z,80.93
2017-04-11T03:29:01.553Z,80.93
2017-04-11T03:29:42.490Z,81.02
2017-04-11T03:30:23.369Z,81.21
2017-04-11T03:31:04.245Z,80.83
2017-04-11T03:31:47.759Z,81.02
2017-04-11T03:32:28.634Z,80.93
2017-04-11T03:33:09.513Z,80.45
2017-04-11T03:33:50.400Z,80.45
2017-04-11T03:34:31.262Z,80.83
2017-04-11T03:35:12.137Z,80.93
2017-04-11T03:35:53.008Z,81.12
2017-04-11T03:36:33.893Z,81.3
2017-04-11T03:38:59.435Z,81.12
2017-04-11T03:39:40.312Z,80.83
2017-04-11T03:40:21.194Z,81.3
2017-04-11T03:41:02.073Z,81.49
2017-04-11T03:41:42.946Z,81.68
2017-04-11T03:42:23.822Z,81.59
2017-04-11T03:43:04.708Z,81.78
2017-04-11T03:43:45.589Z,81.3
2017-04-11T03:44:26.466Z,81.3
2017-04-11T03:45:07.341Z,81.12
2017-04-11T03:45:48.219Z,81.21
2017-04-11T03:46:29.098Z,80.93
2017-04-11T03:47:09.980Z,80.83
2017-04-11T03:47:50.854Z,81.02
2017-04-11T03:48:31.743Z,80.64
2017-04-11T03:49:12.590Z,81.02
2017-04-11T03:49:53.482Z,80.83
2017-04-11T03:50:34.366Z,80.93
2017-04-11T03:51:15.243Z,81.02
2017-04-11T03:53:13.960Z,80.83
2017-04-11T03:53:54.839Z,80.64
2017-04-11T03:54:35.716Z,80.16
2017-04-11T03:55:16.589Z,80.07
2017-04-11T03:55:57.458Z,80.16
2017-04-11T03:56:38.334Z,80.26
2017-04-11T03:57:19.217Z,79.79
2017-04-11T03:58:00.096Z,79.79
2017-04-11T03:58:40.979Z,79.97
2017-04-11T03:59:21.837Z,79.94
2017-04-11T04:00:02.705Z,79.97
2017-04-11T04:00:43.576Z,79.84
2017-04-11T04:01:24.453Z,79.97
2017-04-11T04:02:05.333Z,79.46
2017-04-11T04:02:46.218Z,79.65
2017-04-11T04:03:27.093Z,79.41
2017-04-11T04:04:07.970Z,79.17
2017-04-11T04:04:48.848Z,79.03
2017-04-11T04:05:29.728Z,79.46
2017-04-11T04:06:10.601Z,79.41
2017-04-11T04:06:51.472Z,78.7
2017-04-11T04:07:32.347Z,79.17
2017-04-11T04:08:13.219Z,79.55
2017-04-11T04:08:54.098Z,79.74
2017-04-11T04:09:34.969Z,79.08
2017-04-11T04:10:15.849Z,78.99
2017-04-11T04:10:56.723Z,78.7
2017-04-11T04:11:37.602Z,79.17
2017-04-11T04:12:18.491Z,78.99
2017-04-11T04:12:59.362Z,78.99
2017-04-11T04:13:40.242Z,79.17
2017-04-11T04:14:21.111Z,79.27
2017-04-11T04:15:01.981Z,78.99
2017-04-11T04:15:42.857Z,78.89
2017-04-11T04:16:23.741Z,78.51
2017-04-11T04:17:04.617Z,78.7
2017-04-11T04:17:45.491Z,78.51
2017-04-11T04:18:26.361Z,78.61
2017-04-11T04:19:07.262Z,78.32
2017-04-11T04:19:48.165Z,78.13
2017-04-11T04:20:29.022Z,78.42
2017-04-11T04:21:09.895Z,77.94
2017-04-11T04:21:50.768Z,77.75
2017-04-11T04:22:31.639Z,78.03
2017-04-11T04:23:12.513Z,77.94
2017-04-11T04:23:53.390Z,77.94
2017-04-11T04:24:34.330Z,78.03
2017-04-11T04:25:15.164Z,77.37
2017-04-11T04:25:56.020Z,77.56
2017-04-11T04:26:36.894Z,77.09
2017-04-11T04:27:17.772Z,77.09
2017-04-11T04:27:58.652Z,77.47
2017-04-11T04:28:39.536Z,77.28
2017-04-11T04:29:20.408Z,76.99
2017-04-11T04:30:01.298Z,77.66
2017-04-11T04:30:42.188Z,77.18
2017-04-11T04:31:23.053Z,77.56
2017-04-11T04:32:03.927Z,77.18
2017-04-11T04:32:44.799Z,77.28
2017-04-11T04:33:25.675Z,77.28
2017-04-11T04:34:06.557Z,77.37
2017-04-11T04:34:47.435Z,76.8
2017-04-11T04:35:28.307Z,77.47
2017-04-11T04:36:09.180Z,77.28
2017-04-11T04:36:50.051Z,77.66
2017-04-11T04:37:30.922Z,77.84
2017-04-11T04:38:11.807Z,77.18
2017-04-11T04:38:52.686Z,77.56
2017-04-11T04:39:33.557Z,78.03
2017-04-11T04:40:14.418Z,77.75
2017-04-11T04:40:55.293Z,78.03
2017-04-11T04:41:36.163Z,78.03
2017-04-11T04:42:17.064Z,78.89
2017-04-11T04:42:57.946Z,78.61
2017-04-11T04:43:38.815Z,78.7
2017-04-11T04:44:19.687Z,78.8
2017-04-11T04:45:00.601Z,78.89
2017-04-11T04:45:41.432Z,79.36
2017-04-11T04:46:22.317Z,79.55
2017-04-11T04:47:03.183Z,78.89
2017-04-11T04:47:44.050Z,78.89
2017-04-11T04:48:24.919Z,79.36
2017-04-11T04:49:05.790Z,78.99
2017-04-11T04:49:46.663Z,78.8
2017-04-11T04:50:27.538Z,79.17
2017-04-11T04:51:08.415Z,79.94
2017-04-11T04:51:49.297Z,79.74
2017-04-11T04:52:30.175Z,79.84
2017-04-11T04:53:11.090Z,80.88
2017-04-11T04:53:51.977Z,82.21
2017-04-11T04:54:32.840Z,82.88
2017-04-11T04:55:13.702Z,82.97
2017-04-11T04:55:54.576Z,82.97
2017-04-11T04:56:35.489Z,83.16
2017-04-11T04:57:16.370Z,82.88
2017-04-11T04:57:57.236Z,83.26
2017-04-11T04:58:38.108Z,83.73
2017-04-11T04:59:18.988Z,83.54
2017-04-11T04:59:59.863Z,83.45
2017-04-11T05:00:40.741Z,84.3
2017-04-11T05:01:21.620Z,84.4
2017-04-11T05:02:02.487Z,84.3
2017-04-11T05:02:43.365Z,84.21
2017-04-11T05:03:24.233Z,84.59
2017-04-11T05:04:05.113Z,84.49
2017-04-11T05:04:45.995Z,84.78
2017-04-11T05:05:26.873Z,84.78
2017-04-11T05:06:07.749Z,84.87
2017-04-11T05:06:48.619Z,84.97
2017-04-11T05:07:29.485Z,84.97
2017-04-11T05:08:10.340Z,84.78
2017-04-11T05:08:51.222Z,84.21
2017-04-11T05:09:32.114Z,84.21
2017-04-11T05:10:12.990Z,84.21
2017-04-11T05:10:53.865Z,84.3
2017-04-11T05:11:34.812Z,84.3
2017-04-11T05:12:15.696Z,84.21
2017-04-11T05:12:56.579Z,84.49
2017-04-11T05:13:37.461Z,84.59
2017-04-11T05:14:18.332Z,84.49
2017-04-11T05:14:59.206Z,84.49
2017-04-11T05:15:40.081Z,84.4
2017-04-11T05:16:20.985Z,84.59
2017-04-11T05:17:01.868Z,84.78
2017-04-11T05:17:42.746Z,84.59
2017-04-11T05:18:23.619Z,84.68
2017-04-11T05:19:04.487Z,84.87
2017-04-11T05:19:45.365Z,84.68
2017-04-11T05:20:26.264Z,85.06
2017-04-11T05:21:07.159Z,84.97
2017-04-11T05:21:48.009Z,84.78
2017-04-11T05:22:28.881Z,84.97
2017-04-11T05:23:09.760Z,84.87
2017-04-11T05:23:50.650Z,84.97
2017-04-11T05:24:31.528Z,85.25
2017-04-11T05:25:12.408Z,85.06
2017-04-11T05:25:53.298Z,84.97
2017-04-11T05:26:34.174Z,84.68
2017-04-11T05:27:15.049Z,84.78
2017-04-11T05:27:55.929Z,85.06
2017-04-11T05:28:36.801Z,84.78
2017-04-11T05:29:17.679Z,84.87
2017-04-11T05:29:58.556Z,84.97
2017-04-11T05:30:39.443Z,84.72
2017-04-11T05:31:20.320Z,84.53
2017-04-11T05:32:01.194Z,84.49
2017-04-11T05:32:42.077Z,84.59
2017-04-11T05:33:22.974Z,84.63
2017-04-11T05:34:03.857Z,84.87
2017-04-11T05:34:44.686Z,84.3
2017-04-11T05:35:25.566Z,84.3
2017-04-11T05:36:06.432Z,84.78
2017-04-11T05:36:47.298Z,84.82
2017-04-11T05:37:28.167Z,84.63
2017-04-11T05:38:09.041Z,84.06
2017-04-11T05:38:49.918Z,83.97
2017-04-11T05:39:30.802Z,83.78
2017-04-11T05:40:11.673Z,83.87
2017-04-11T05:40:52.555Z,83.87
2017-04-11T05:41:33.492Z,83.49
2017-04-11T05:42:14.352Z,83.39
2017-04-11T05:42:55.226Z,84.06
2017-04-11T05:43:36.116Z,84.34
2017-04-11T05:44:16.982Z,84.25
2017-04-11T05:44:57.859Z,83.87
2017-04-11T05:45:38.734Z,83.68
2017-04-11T05:46:19.613Z,83.68
2017-04-11T05:47:00.487Z,83.68
2017-04-11T05:47:41.372Z,84.53
2017-04-11T05:48:22.242Z,84.82
2017-04-11T05:49:03.117Z,84.49
2017-04-11T05:49:43.988Z,84.4
2017-04-11T05:50:24.871Z,85.01
2017-04-11T05:51:05.749Z,84.72
2017-04-11T05:51:46.650Z,84.34
2017-04-11T05:52:27.627Z,83.68
2017-04-11T05:53:08.422Z,83.59
2017-04-11T05:53:49.303Z,83.39
2017-04-11T05:54:30.169Z,83.68
2017-04-11T05:55:11.048Z,84.06
2017-04-11T05:55:51.927Z,83.97
2017-04-11T05:56:32.813Z,84.34
2017-04-11T05:57:13.702Z,84.53
2017-04-11T05:57:54.634Z,84.72
2017-04-11T05:58:35.490Z,84.63
2017-04-11T05:59:16.366Z,85.01
2017-04-11T05:59:57.233Z,84.53
2017-04-11T06:00:38.111Z,84.25
2017-04-11T06:01:18.987Z,84.53
2017-04-11T06:01:59.880Z,84.34
2017-04-11T06:02:40.795Z,83.97
2017-04-11T06:03:21.689Z,83.78
2017-04-11T06:04:02.572Z,83.68
2017-04-11T06:04:43.449Z,83.39
2017-04-11T06:05:24.327Z,83.68
2017-04-11T06:06:05.203Z,83.68
2017-04-11T06:06:46.067Z,83.59
2017-04-11T06:07:26.943Z,83.3
2017-04-11T06:08:07.821Z,83.68
2017-04-11T06:08:48.696Z,83.59
2017-04-11T06:09:29.578Z,83.59
2017-04-11T06:10:10.451Z,83.68
2017-04-11T06:10:51.354Z,83.49
2017-04-11T06:11:32.225Z,83.87
2017-04-11T06:12:13.107Z,83.97
2017-04-11T06:12:53.977Z,83.59
2017-04-11T06:13:34.849Z,83.39
2017-04-11T06:14:15.731Z,83.87
2017-04-11T06:14:56.616Z,83.87
2017-04-11T06:15:37.487Z,84.72
2017-04-11T06:16:18.362Z,84.44
2017-04-11T06:16:59.241Z,83.97
2017-04-11T06:17:40.120Z,83.59
2017-04-11T06:18:20.997Z,83.87
2017-04-11T06:19:01.916Z,83.87
2017-04-11T06:19:42.759Z,83.97
2017-04-11T06:20:23.651Z,83.68
2017-04-11T06:21:04.535Z,83.49
2017-04-11T06:21:45.407Z,83.59
2017-04-11T06:22:26.285Z,83.2
2017-04-11T06:23:07.161Z,83.01
2017-04-11T06:23:48.041Z,83.2
2017-04-11T06:24:28.910Z,83.01
2017-04-11T06:25:09.782Z,83.11
2017-04-11T06:25:50.700Z,82.64
2017-04-11T06:26:31.596Z,82.16
2017-04-11T06:27:12.470Z,81.49
2017-04-11T06:27:53.339Z,81.73
2017-04-11T06:28:34.219Z,81.73
2017-04-11T06:29:15.110Z,81.44
2017-04-11T06:29:55.987Z,81.73
2017-04-11T06:30:36.878Z,81.16
2017-04-11T06:31:17.754Z,80.87
2017-04-11T06:31:58.640Z,80.68
2017-04-11T06:32:40.327Z,81.06
2017-04-11T06:33:21.197Z,80.93
2017-04-11T06:34:02.079Z,80.87
2017-04-11T06:34:42.953Z,81.16
2017-04-11T06:35:23.830Z,81.25
2017-04-11T06:36:04.710Z,81.12
2017-04-11T06:36:45.595Z,81.4
2017-04-11T06:37:26.470Z,81.78
2017-04-11T06:38:07.348Z,81.06
2017-04-11T06:38:48.221Z,80.87
2017-04-11T06:39:29.098Z,80.49
2017-04-11T06:40:09.964Z,80.58
2017-04-11T06:40:50.838Z,80.02
2017-04-11T06:41:31.715Z,80.02
2017-04-11T06:42:12.590Z,79.83
2017-04-11T06:42:53.467Z,79.83
2017-04-11T06:43:34.357Z,80.11
2017-04-11T06:44:15.219Z,80.21
2017-04-11T06:44:56.095Z,79.83
2017-04-11T06:45:36.973Z,80.21
2017-04-11T06:46:17.849Z,80.3
2017-04-11T06:46:58.726Z,80.11
2017-04-11T06:47:39.607Z,79.83
2017-04-11T06:48:20.487Z,80.07
2017-04-11T06:49:01.365Z,80.83
2017-04-11T06:49:42.245Z,80.83
2017-04-11T06:50:23.124Z,81.4
2017-04-11T06:51:04.025Z,81.87
2017-04-11T06:51:44.901Z,82.26
2017-04-11T06:52:25.780Z,81.87
2017-04-11T06:53:06.674Z,82.29
2017-04-11T06:53:47.526Z,82.1
2017-04-11T06:54:28.405Z,81.63
2017-04-11T06:55:09.275Z,80.87
2017-04-11T06:55:50.153Z,80.87
2017-04-11T06:56:31.037Z,81.21
2017-04-11T06:57:11.919Z,80.96
2017-04-11T06:57:52.795Z,80.87
2017-04-11T06:58:33.671Z,80.87
2017-04-11T06:59:14.540Z,81.25
2017-04-11T06:59:55.411Z,80.58
2017-04-11T07:00:36.288Z,80.49
2017-04-11T07:01:17.170Z,81.06
2017-04-11T07:01:58.049Z,80.64
2017-04-11T07:02:38.922Z,81.12
2017-04-11T07:03:19.809Z,80.83
2017-04-11T07:04:00.680Z,81.02
2017-04-11T07:04:41.557Z,81.4
2017-04-11T07:06:40.053Z,81.78
2017-04-11T07:07:20.927Z,82.07
2017-04-11T07:08:01.808Z,81.68
2017-04-11T07:08:42.691Z,81.59
2017-04-11T07:09:23.565Z,81.49
2017-04-11T07:10:04.442Z,80.68
2017-04-11T07:10:45.319Z,80.4
2017-04-11T07:11:26.217Z,79.63
2017-04-11T07:12:07.088Z,79.16
2017-04-11T07:12:47.973Z,79.35
2017-04-11T07:13:28.848Z,79.54
2017-04-11T07:14:09.721Z,80.4
2017-04-11T07:14:50.599Z,79.83
2017-04-11T07:15:31.475Z,80.21
2017-04-11T07:16:12.355Z,80.21
2017-04-11T07:16:53.239Z,80.49
2017-04-11T07:17:34.117Z,80.21
2017-04-11T07:18:14.998Z,79.83
2017-04-11T07:18:55.873Z,79.63
2017-04-11T07:19:36.754Z,79.92
2017-04-11T07:20:17.631Z,79.83
2017-04-11T07:20:58.514Z,80.11
2017-04-11T07:21:39.392Z,80.58
2017-04-11T07:22:20.269Z,80.77
2017-04-11T07:23:01.153Z,81.06
2017-04-11T07:23:42.036Z,81.16
2017-04-11T07:24:22.914Z,80.68
2017-04-11T07:25:03.793Z,80.58
2017-04-11T07:25:44.669Z,80.68
2017-04-11T07:26:25.553Z,81.82
2017-04-11T07:27:06.427Z,81.63
2017-04-11T07:27:47.304Z,81.63
2017-04-11T07:28:28.177Z,81.82
2017-04-11T07:29:09.057Z,81.44
2017-04-11T07:29:49.967Z,81.25
2017-04-11T07:30:30.834Z,81.35
2017-04-11T07:31:11.719Z,80.77
2017-04-11T07:31:52.595Z,81.06
2017-04-11T07:32:33.472Z,81.25
2017-04-11T07:33:14.348Z,81.16
2017-04-11T07:33:55.241Z,81.25
2017-04-11T07:34:36.118Z,81.25
2017-04-11T07:35:16.995Z,81.16
2017-04-11T07:35:57.876Z,81.25
2017-04-11T07:36:38.750Z,81.1
2017-04-11T07:37:19.641Z,81.2
2017-04-11T07:38:00.551Z,81.77
2017-04-11T07:38:41.425Z,82.01
2017-04-11T07:39:22.300Z,82.96
2017-04-11T07:40:03.181Z,83.72
2017-04-11T07:40:44.068Z,84.58
2017-04-11T07:41:24.947Z,85.72
2017-04-11T07:42:05.858Z,85.81
2017-04-11T07:42:46.715Z,86.1
2017-04-11T07:43:27.594Z,86.86
2017-04-11T07:44:08.466Z,87.43
2017-04-11T07:44:49.342Z,88.24
2017-04-11T07:45:30.219Z,88.34
2017-04-11T07:46:11.092Z,89.09
2017-04-11T07:46:51.971Z,89.76
2017-04-11T07:47:32.847Z,90.14
2017-04-11T07:48:13.725Z,90.71
2017-04-11T07:48:54.600Z,91.94
2017-04-11T07:49:35.478Z,91.66
2017-04-11T07:50:16.361Z,91.94
2017-04-11T07:50:57.239Z,91.47
2017-04-11T07:51:38.120Z,91.66
2017-04-11T07:52:18.986Z,92.32
2017-04-11T07:52:59.896Z,91.75
2017-04-11T07:53:40.774Z,91.56
2017-04-11T07:54:21.683Z,92.42
2017-04-11T07:55:02.560Z,92.8
2017-04-11T07:55:43.435Z,92.9
2017-04-11T07:56:24.307Z,92.99
2017-04-11T07:57:05.185Z,92.61
2017-04-11T07:57:46.059Z,93.18
2017-04-11T07:58:26.938Z,93.56
2017-04-11T07:59:07.817Z,93.27
2017-04-11T07:59:48.695Z,93.75
2017-04-11T08:00:29.571Z,93.56
2017-04-11T08:01:10.445Z,93.84
2017-04-11T08:01:51.325Z,93.56
2017-04-11T08:02:32.198Z,93.84
2017-04-11T08:03:13.068Z,93.65
2017-04-11T08:03:53.945Z,93.84
2017-04-11T08:04:34.816Z,94.51
2017-04-11T08:05:15.692Z,93.65
2017-04-11T08:05:56.573Z,93.56
2017-04-11T08:06:37.459Z,93.27
2017-04-11T08:07:18.339Z,93.27
2017-04-11T08:07:59.206Z,93.65
2017-04-11T08:08:40.078Z,93.84
2017-04-11T08:09:20.951Z,93.75
2017-04-11T08:10:01.828Z,92.99
2017-04-11T08:10:42.713Z,93.46
2017-04-11T08:11:23.592Z,93.65
2017-04-11T08:12:04.463Z,94.03
2017-04-11T08:12:45.346Z,92.99
2017-04-11T08:13:26.230Z,92.99
2017-04-11T08:14:07.098Z,92.9
2017-04-11T08:14:47.975Z,92.23
2017-04-11T08:15:28.852Z,92.04
2017-04-11T08:16:09.723Z,91.94
2017-04-11T08:16:50.599Z,91.38
2017-04-11T08:17:31.467Z,90.61
2017-04-11T08:18:12.362Z,89.95
2017-04-11T08:18:53.234Z,90.19
2017-04-11T08:19:34.113Z,90.09
2017-04-11T08:20:14.984Z,90.09
2017-04-11T08:20:55.858Z,90.19
2017-04-11T08:21:36.735Z,90.19
2017-04-11T08:22:17.616Z,89.42
2017-04-11T08:22:58.494Z,89.33
2017-04-11T08:23:39.368Z,89.04
2017-04-11T08:24:20.243Z,89.42
2017-04-11T08:25:01.124Z,89.42
2017-04-11T08:25:42.004Z,89.23
2017-04-11T08:26:22.880Z,88.19
2017-04-11T08:27:03.757Z,87.81
2017-04-11T08:27:44.635Z,87.52
2017-04-11T08:28:25.519Z,86.95
2017-04-11T08:29:06.398Z,87.1
2017-04-11T08:29:47.278Z,86.95
2017-04-11T08:30:28.155Z,86.91
2017-04-11T08:31:09.030Z,85.53
2017-04-11T08:31:49.907Z,85.3
2017-04-11T08:32:30.785Z,85.3
2017-04-11T08:33:11.660Z,85.3
2017-04-11T08:33:52.531Z,85.53
2017-04-11T08:34:33.414Z,85.43
2017-04-11T08:35:14.291Z,85.68
2017-04-11T08:35:55.168Z,86.15
2017-04-11T08:36:36.048Z,86.43
2017-04-11T08:37:16.928Z,86.34
2017-04-11T08:37:57.805Z,86.72
2017-04-11T08:38:38.698Z,86.67
2017-04-11T08:39:19.607Z,86.29
2017-04-11T08:40:00.441Z,85.3
2017-04-11T08:40:41.323Z,85.01
2017-04-11T08:41:22.198Z,84.82
2017-04-11T08:42:03.082Z,85.39
2017-04-11T08:42:43.960Z,85.53
2017-04-11T08:43:24.839Z,85.43
2017-04-11T08:44:05.723Z,85.62
2017-04-11T08:44:46.602Z,85.62
2017-04-11T08:45:27.481Z,85.34
2017-04-11T08:46:08.357Z,84.29
2017-04-11T08:46:49.232Z,84.1
2017-04-11T08:47:30.106Z,84.01
2017-04-11T08:48:10.985Z,83.53
2017-04-11T08:48:51.869Z,83.06
2017-04-11T08:49:32.753Z,82.58
2017-04-11T08:50:13.630Z,82.71
2017-04-11T08:50:55.282Z,82.58
2017-04-11T08:51:36.164Z,82.53
2017-04-11T08:52:17.059Z,82.24
2017-04-11T08:52:57.934Z,81.2
2017-04-11T08:53:38.812Z,80.34